createdAt,value
2023-03-06T00:00:39.617Z,95.30
2023-03-06T00:03:06.920Z,95.20
2023-03-06T00:05:33.891Z,94.90
2023-03-06T00:08:00.954Z,94.80
2023-03-06T00:10:30.627Z,94.60
2023-03-06T00:13:00.418Z,94.30
2023-03-06T00:15:27.984Z,93.90
2023-03-06T00:17:55.887Z,93.60
2023-03-06T00:20:23.580Z,93.40
2023-03-06T00:22:50.926Z,93.20
2023-03-06T00:25:20.376Z,93.70
2023-03-06T00:27:48.033Z,94.50
2023-03-06T00:30:18.284Z,95.40
2023-03-06T00:32:45.410Z,96.10
2023-03-06T00:35:12.879Z,96.70
2023-03-06T00:37:40.723Z,97.20
2023-03-06T00:40:10.981Z,97.40
2023-03-06T00:42:37.977Z,97.30
2023-03-06T00:45:05.468Z,97.10
2023-03-06T00:47:32.776Z,97.20
2023-03-06T00:49:59.794Z,97.50
2023-03-06T00:52:26.861Z,97.90
2023-03-06T00:54:53.863Z,98.30
2023-03-06T00:57:20.834Z,98.80
2023-03-06T00:59:47.840Z,99.10
2023-03-06T01:02:15.041Z,99.30
2023-03-06T01:04:42.159Z,99.40
2023-03-06T01:07:10.597Z,99.20
2023-03-06T01:09:37.656Z,99.40
2023-03-06T01:12:04.809Z,99.70
2023-03-06T01:14:32.145Z,99.70
2023-03-06T01:16:59.332Z,99.80
2023-03-06T01:19:26.309Z,99.90
2023-03-06T01:21:53.249Z,100.00
2023-03-06T01:24:20.284Z,99.90
2023-03-06T01:26:47.253Z,99.70
2023-03-06T01:29:14.496Z,99.10
2023-03-06T01:31:41.540Z,98.90
2023-03-06T01:34:08.510Z,98.90
2023-03-06T01:36:35.494Z,98.80
2023-03-06T01:39:03.832Z,98.40
2023-03-06T01:41:32.781Z,98.60
2023-03-06T01:43:59.903Z,98.70
2023-03-06T01:46:32.654Z,98.70
2023-03-06T01:49:11.355Z,98.50
2023-03-06T01:52:03.625Z,98.20
2023-03-06T01:54:44.403Z,97.80
2023-03-06T01:57:28.972Z,97.40
2023-03-06T02:00:09.836Z,97.10
2023-03-06T02:02:47.614Z,96.70
2023-03-06T02:05:14.623Z,96.20
2023-03-06T02:07:42.899Z,95.80
2023-03-06T02:10:14.881Z,95.30
2023-03-06T02:12:43.853Z,95.00
2023-03-06T02:15:17.150Z,95.00
2023-03-06T02:17:46.085Z,94.40
2023-03-06T02:20:41.041Z,94.50
2023-03-06T02:23:20.837Z,94.90
2023-03-06T02:25:51.103Z,95.60
2023-03-06T02:28:21.158Z,96.30
2023-03-06T02:30:50.397Z,96.70
2023-03-06T02:33:20.641Z,96.90
2023-03-06T02:36:00.850Z,97.40
2023-03-06T02:38:32.162Z,97.80
2023-03-06T02:41:01.733Z,98.00
2023-03-06T02:43:34.008Z,97.40
2023-03-06T02:46:02.485Z,97.10
2023-03-06T02:48:29.568Z,96.90
2023-03-06T02:50:56.645Z,96.50
2023-03-06T02:53:24.064Z,96.00
2023-03-06T02:55:51.728Z,95.60
2023-03-06T02:58:22.044Z,94.90
2023-03-06T03:00:50.036Z,94.40
2023-03-06T03:03:18.832Z,95.00
2023-03-06T03:10:04.573Z,95.70
2023-03-06T03:12:32.887Z,95.40
2023-03-06T03:14:59.997Z,95.40
2023-03-06T03:17:28.980Z,94.90
2023-03-06T03:19:56.012Z,94.90
2023-03-06T03:22:23.084Z,95.00
2023-03-06T03:24:50.444Z,94.90
2023-03-06T03:27:17.641Z,94.40
2023-03-06T03:29:44.693Z,94.20
2023-03-06T03:32:12.367Z,94.40
2023-03-06T03:34:41.719Z,94.50
2023-03-06T03:37:09.333Z,94.40
2023-03-06T03:39:37.802Z,94.10
2023-03-06T03:42:05.013Z,94.00
2023-03-06T03:44:32.100Z,93.80
2023-03-06T03:46:59.552Z,93.40
2023-03-06T03:49:26.661Z,93.30
2023-03-06T03:51:54.504Z,93.70
2023-03-06T03:54:23.481Z,94.50
2023-03-06T03:56:53.090Z,95.30
2023-03-06T03:59:25.157Z,96.10
2023-03-06T04:02:06.302Z,96.70
2023-03-06T04:04:39.221Z,96.80
2023-03-06T04:07:07.017Z,96.40
2023-03-06T04:09:34.286Z,96.00
2023-03-06T04:12:01.329Z,95.80
2023-03-06T04:14:29.297Z,95.40
2023-03-06T04:16:56.813Z,95.40
2023-03-06T04:19:23.915Z,95.10
2023-03-06T04:21:51.020Z,94.90
2023-03-06T04:24:18.753Z,94.80
2023-03-06T04:26:46.516Z,94.60
2023-03-06T04:29:14.078Z,94.20
2023-03-06T04:31:41.136Z,93.90
2023-03-06T04:34:08.669Z,93.50
2023-03-06T04:36:36.648Z,93.50
2023-03-06T04:39:12.724Z,93.50
2023-03-06T04:41:40.775Z,93.40
2023-03-06T04:44:08.374Z,93.30
2023-03-06T04:46:36.113Z,93.60
2023-03-06T04:49:03.961Z,94.00
2023-03-06T04:51:31.379Z,94.10
2023-03-06T04:53:58.454Z,93.90
2023-03-06T04:56:25.495Z,94.00
2023-03-06T04:58:52.506Z,94.00
2023-03-06T05:01:19.618Z,93.90
2023-03-06T05:03:46.731Z,93.90
2023-03-06T05:06:13.686Z,93.90
2023-03-06T05:08:40.681Z,93.60
2023-03-06T05:11:07.716Z,93.50
2023-03-06T05:13:34.764Z,93.50
2023-03-06T05:16:03.208Z,93.40
2023-03-06T05:18:30.614Z,93.30
2023-03-06T05:20:59.995Z,93.10
2023-03-06T05:23:27.987Z,92.80
2023-03-06T05:25:54.995Z,92.70
2023-03-06T05:28:22.074Z,92.80
2023-03-06T05:30:49.236Z,93.30
2023-03-06T05:33:16.333Z,93.50
2023-03-06T05:35:47.961Z,93.50
2023-03-06T05:38:41.825Z,93.70
2023-03-06T05:41:14.310Z,94.00
2023-03-06T05:43:41.453Z,94.00
2023-03-06T05:46:09.284Z,93.90
2023-03-06T05:48:37.613Z,94.10
2023-03-06T05:51:05.866Z,94.10
2023-03-06T05:53:33.126Z,94.00
2023-03-06T05:56:06.279Z,94.10
2023-03-06T05:58:33.899Z,94.20
2023-03-06T06:01:07.567Z,94.40
2023-03-06T06:04:46.496Z,94.30
2023-03-06T06:07:17.194Z,94.10
2023-03-06T06:09:47.756Z,94.20
2023-03-06T06:12:14.815Z,94.20
2023-03-06T06:14:41.877Z,94.40
2023-03-06T06:17:09.071Z,94.60
2023-03-06T06:19:36.077Z,94.60
2023-03-06T06:22:03.960Z,94.70
2023-03-06T06:24:31.776Z,94.60
2023-03-06T06:27:01.470Z,94.50
2023-03-06T06:29:30.395Z,94.20
2023-03-06T06:31:57.791Z,94.40
2023-03-06T06:34:26.050Z,94.50
2023-03-06T06:36:54.499Z,94.40
2023-03-06T06:39:23.184Z,94.40
2023-03-06T06:42:09.695Z,94.40
2023-03-06T06:44:40.129Z,94.50
2023-03-06T06:47:24.845Z,94.00
2023-03-06T06:49:53.218Z,94.00
2023-03-06T06:52:20.482Z,93.70
2023-03-06T06:54:47.609Z,93.70
2023-03-06T06:57:15.628Z,94.00
2023-03-06T06:59:42.726Z,94.40
2023-03-06T07:02:15.987Z,94.60
2023-03-06T07:05:00.272Z,95.00
2023-03-06T07:07:29.377Z,95.20
2023-03-06T07:09:56.709Z,94.80
2023-03-06T07:12:23.748Z,94.50
2023-03-06T07:14:50.772Z,94.40
2023-03-06T07:17:17.760Z,94.30
2023-03-06T07:19:44.727Z,93.50
2023-03-06T07:22:12.263Z,93.60
2023-03-06T07:24:39.219Z,94.10
2023-03-06T07:27:06.403Z,93.50
2023-03-06T07:29:34.688Z,93.20
2023-03-06T07:32:01.922Z,93.10
2023-03-06T07:34:29.230Z,92.30
2023-03-06T07:36:56.272Z,92.80
2023-03-06T07:39:23.325Z,92.70
2023-03-06T07:41:50.360Z,92.90
2023-03-06T07:44:17.434Z,92.90
2023-03-06T07:46:44.506Z,92.50
2023-03-06T07:49:11.618Z,92.20
2023-03-06T07:51:38.613Z,92.10
2023-03-06T07:54:05.595Z,91.70
2023-03-06T07:56:35.153Z,91.80
2023-03-06T07:59:02.109Z,91.80
2023-03-06T08:01:29.184Z,92.30
2023-03-06T08:03:56.829Z,92.10
2023-03-06T08:06:26.784Z,92.00
2023-03-06T08:08:55.616Z,91.80
2023-03-06T08:11:28.712Z,92.10
2023-03-06T08:13:57.108Z,91.40
2023-03-06T08:16:26.438Z,91.60
2023-03-06T08:18:57.840Z,91.10
2023-03-06T08:21:27.324Z,91.00
2023-03-06T08:23:54.494Z,91.00
2023-03-06T08:26:24.572Z,90.40
2023-03-06T08:28:53.039Z,90.40
2023-03-06T08:31:32.945Z,90.30
2023-03-06T08:34:02.998Z,90.40
2023-03-06T08:36:30.231Z,90.30
2023-03-06T08:38:58.396Z,90.00
2023-03-06T08:41:25.874Z,89.80
2023-03-06T08:43:53.362Z,89.50
2023-03-06T08:46:23.586Z,89.40
2023-03-06T08:48:50.722Z,89.70
2023-03-06T08:51:18.696Z,90.10
2023-03-06T08:53:46.387Z,90.70
2023-03-06T08:56:25.345Z,90.40
2023-03-06T08:58:52.962Z,89.80
2023-03-06T09:01:29.110Z,90.10
2023-03-06T09:03:58.406Z,90.10
2023-03-06T09:06:27.470Z,90.20
2023-03-06T09:08:55.277Z,90.10
2023-03-06T09:11:24.452Z,90.70
2023-03-06T09:13:52.024Z,90.40
2023-03-06T09:16:19.706Z,90.80
2023-03-06T09:18:46.858Z,91.80
2023-03-06T09:21:13.925Z,91.50
2023-03-06T09:23:41.156Z,91.80
2023-03-06T09:26:08.813Z,92.30
2023-03-06T09:28:39.166Z,93.20
2023-03-06T09:31:15.660Z,91.70
2023-03-06T09:33:42.801Z,91.50
2023-03-06T09:36:21.925Z,90.60
2023-03-06T09:38:50.189Z,89.80
2023-03-06T09:41:31.739Z,90.60
2023-03-06T09:44:09.225Z,91.10
2023-03-06T09:46:57.782Z,90.10
2023-03-06T09:49:55.660Z,89.90
2023-03-06T09:52:36.497Z,90.00
2023-03-06T09:55:20.828Z,90.30
2023-03-06T09:58:07.598Z,91.10
2023-03-06T10:01:01.063Z,91.60
2023-03-06T10:03:47.058Z,93.00
2023-03-06T10:06:23.352Z,91.90
2023-03-06T10:09:03.719Z,92.20
2023-03-06T10:11:47.285Z,93.10
2023-03-06T10:14:30.439Z,93.00
2023-03-06T10:16:58.631Z,94.50
2023-03-06T10:19:37.797Z,93.90
2023-03-06T10:23:11.188Z,93.50
2023-03-06T10:25:52.418Z,94.20
2023-03-06T10:28:47.087Z,94.20
2023-03-06T10:31:24.188Z,94.60
2023-03-06T10:34:06.667Z,94.70
2023-03-06T10:36:33.724Z,94.40
2023-03-06T10:39:04.784Z,94.90
2023-03-06T10:41:38.358Z,94.70
2023-03-06T10:44:06.032Z,95.00
2023-03-06T10:46:35.554Z,95.10
2023-03-06T10:49:04.239Z,95.20
2023-03-06T10:51:32.268Z,94.90
2023-03-06T10:54:02.198Z,94.90
2023-03-06T10:56:42.547Z,94.70
2023-03-06T10:59:17.246Z,93.70
2023-03-06T11:01:47.045Z,92.70
2023-03-06T11:04:25.071Z,92.90
2023-03-06T11:11:12.845Z,93.10
2023-03-06T11:13:42.719Z,93.40
2023-03-06T11:16:24.451Z,94.00
2023-03-06T11:19:04.204Z,93.60
2023-03-06T11:21:37.585Z,92.90
2023-03-06T11:24:17.327Z,92.60
2023-03-06T11:26:51.698Z,92.70
2023-03-06T11:29:26.618Z,91.60
2023-03-06T11:32:08.814Z,91.70
2023-03-06T11:34:59.090Z,91.60
2023-03-06T11:37:32.264Z,90.50
2023-03-06T11:40:12.438Z,90.40
2023-03-06T11:42:44.426Z,89.50
2023-03-06T11:45:17.338Z,89.30
2023-03-06T11:47:46.495Z,90.30
2023-03-06T11:50:29.090Z,89.00
2023-03-06T11:53:05.251Z,88.80
2023-03-06T11:55:42.613Z,89.40
2023-03-06T11:58:51.244Z,90.00
2023-03-06T12:01:36.903Z,89.10
2023-03-06T12:04:35.869Z,89.50
2023-03-06T12:07:21.257Z,88.10
2023-03-06T12:10:02.229Z,88.10
2023-03-06T12:12:31.945Z,88.10
2023-03-06T12:15:20.129Z,87.30
2023-03-06T12:17:56.001Z,87.00
2023-03-06T12:20:28.098Z,87.90
2023-03-06T12:23:16.662Z,88.40
2023-03-06T12:30:38.606Z,86.00
2023-03-06T12:33:26.108Z,85.90
2023-03-06T12:36:17.566Z,85.20
2023-03-06T12:39:10.485Z,85.30
2023-03-06T12:41:52.592Z,85.40
2023-03-06T12:45:01.489Z,84.70
2023-03-06T12:47:31.122Z,84.50
2023-03-06T12:50:02.912Z,84.00
2023-03-06T12:52:32.676Z,83.90
2023-03-06T12:55:00.542Z,84.30
2023-03-06T12:57:42.099Z,83.20
2023-03-06T13:00:35.121Z,82.10
2023-03-06T13:03:25.226Z,81.30
2023-03-06T13:06:06.945Z,80.70
2023-03-06T13:09:04.880Z,80.20
2023-03-06T13:11:58.652Z,79.80
2023-03-06T13:14:54.102Z,81.20
2023-03-06T13:17:21.458Z,79.60
2023-03-06T13:19:49.747Z,79.30
2023-03-06T13:22:44.449Z,79.30
2023-03-06T13:25:21.747Z,79.40
2023-03-06T13:27:54.974Z,80.30
2023-03-06T13:30:35.136Z,81.60
2023-03-06T13:33:15.484Z,81.70
2023-03-06T13:35:42.414Z,81.70
2023-03-06T13:38:39.657Z,82.20
2023-03-06T13:41:27.419Z,82.50
2023-03-06T13:43:56.812Z,82.80
2023-03-06T13:46:37.294Z,82.90
2023-03-06T13:49:04.538Z,83.30
2023-03-06T13:51:36.174Z,82.20
2023-03-06T13:54:21.178Z,82.70
2023-03-06T13:57:20.759Z,83.60
2023-03-06T14:00:46.019Z,83.50
2023-03-06T14:03:31.610Z,84.20
2023-03-06T14:05:59.196Z,84.40
2023-03-06T14:08:28.716Z,84.60
2023-03-06T14:11:19.578Z,84.60
2023-03-06T14:13:54.148Z,84.60
2023-03-06T14:16:24.264Z,85.00
2023-03-06T14:18:55.325Z,85.40
2023-03-06T14:21:48.806Z,85.60
2023-03-06T14:24:20.053Z,86.10
2023-03-06T14:26:50.966Z,86.30
2023-03-06T14:29:23.636Z,86.60
2023-03-06T14:31:53.359Z,86.50
2023-03-06T14:34:33.575Z,86.90
2023-03-06T14:37:22.284Z,87.40
2023-03-06T14:41:02.950Z,87.80
2023-03-06T14:43:31.858Z,87.30
2023-03-06T14:46:01.340Z,86.90
2023-03-06T14:48:44.293Z,86.60
2023-03-06T14:51:18.964Z,86.70
2023-03-06T14:53:48.690Z,86.50
2023-03-06T14:56:18.812Z,86.20
2023-03-06T14:59:46.072Z,86.30
2023-03-06T15:02:22.035Z,86.40
2023-03-06T15:05:00.745Z,86.30
2023-03-06T15:07:32.582Z,85.30
2023-03-06T15:10:01.167Z,85.80
2023-03-06T15:12:30.904Z,85.90
2023-03-06T15:15:26.021Z,85.30
2023-03-06T15:21:53.631Z,85.30
2023-03-06T15:24:36.672Z,85.20
2023-03-06T15:27:07.122Z,84.70
2023-03-06T15:29:38.214Z,85.00
2023-03-06T15:32:31.262Z,85.50
2023-03-06T15:35:37.918Z,85.60
2023-03-06T15:38:34.026Z,85.00
2023-03-06T15:41:03.156Z,84.60
2023-03-06T15:44:25.175Z,83.60
2023-03-06T15:46:59.279Z,84.10
2023-03-06T15:49:33.638Z,84.40
2023-03-06T15:52:32.247Z,84.40
2023-03-06T15:54:59.253Z,85.30
2023-03-06T15:57:30.910Z,84.50
2023-03-06T15:59:59.829Z,84.30
2023-03-06T16:02:26.988Z,84.50
2023-03-06T16:04:54.142Z,84.40
2023-03-06T16:07:21.381Z,84.00
2023-03-06T16:09:48.494Z,83.00
2023-03-06T16:12:17.829Z,83.00
2023-03-06T16:14:47.391Z,83.20
2023-03-06T16:17:14.574Z,83.60
2023-03-06T16:19:42.014Z,83.30
2023-03-06T16:22:09.098Z,83.10
2023-03-06T16:24:37.349Z,82.80
2023-03-06T16:27:04.778Z,82.70
2023-03-06T16:29:32.408Z,82.50
2023-03-06T16:32:01.876Z,82.40
2023-03-06T16:34:29.171Z,82.30
2023-03-06T16:36:56.469Z,81.90
2023-03-06T16:39:24.602Z,82.10
2023-03-06T16:41:51.946Z,81.60
2023-03-06T16:44:58.198Z,81.70
2023-03-06T16:47:25.307Z,81.40
2023-03-06T16:49:57.792Z,81.60
2023-03-06T16:52:24.976Z,81.50
2023-03-06T16:54:52.026Z,82.30
2023-03-06T16:57:19.134Z,82.60
2023-03-06T17:00:43.633Z,83.50
2023-03-06T17:03:10.703Z,84.00
2023-03-06T17:05:38.375Z,83.50
2023-03-06T17:08:05.498Z,84.00
2023-03-06T17:10:32.727Z,84.90
2023-03-06T17:12:59.779Z,85.30
2023-03-06T17:15:26.796Z,85.20
2023-03-06T17:17:53.858Z,85.80
2023-03-06T17:20:21.150Z,87.30
2023-03-06T17:22:48.182Z,88.40
2023-03-06T17:25:15.195Z,89.30
2023-03-06T17:27:42.261Z,90.20
2023-03-06T17:30:09.957Z,90.70
2023-03-06T17:32:38.167Z,91.40
2023-03-06T17:35:05.741Z,91.90
2023-03-06T17:37:32.849Z,92.00
2023-03-06T17:40:00.120Z,91.90
2023-03-06T17:46:22.225Z,92.60
2023-03-06T17:48:49.271Z,93.20
2023-03-06T17:51:16.231Z,93.40
2023-03-06T17:53:43.243Z,93.20
2023-03-06T17:56:13.095Z,93.20
2023-03-06T17:58:40.144Z,92.80
2023-03-06T18:01:19.009Z,93.10
2023-03-06T18:03:48.064Z,92.60
2023-03-06T18:06:16.354Z,92.30
2023-03-06T18:08:43.814Z,92.40
2023-03-06T18:11:11.328Z,92.30
2023-03-06T18:13:40.815Z,92.00
2023-03-06T18:16:08.812Z,91.30
2023-03-06T18:18:38.865Z,92.10
2023-03-06T18:21:11.352Z,91.70
2023-03-06T18:23:39.945Z,92.00
2023-03-06T18:26:16.136Z,92.00
2023-03-06T18:28:46.726Z,92.40
2023-03-06T18:31:18.144Z,92.00
2023-03-06T18:33:47.778Z,92.00
2023-03-06T18:36:20.788Z,92.40
2023-03-06T18:38:51.303Z,92.10
2023-03-06T18:41:19.826Z,92.80
2023-03-06T18:44:17.706Z,92.30
2023-03-06T18:46:45.053Z,92.90
2023-03-06T18:49:13.484Z,93.40
2023-03-06T18:51:41.433Z,93.10
2023-03-06T18:54:09.732Z,92.80
2023-03-06T18:56:37.020Z,93.60
2023-03-06T18:59:06.909Z,93.50
2023-03-06T19:05:49.215Z,93.20
2023-03-06T19:08:17.454Z,94.50
2023-03-06T19:10:46.436Z,94.30
2023-03-06T19:13:13.991Z,93.80
2023-03-06T19:15:49.186Z,94.20
2023-03-06T19:18:18.038Z,93.70
2023-03-06T19:20:45.609Z,94.30
2023-03-06T19:24:23.011Z,94.70
2023-03-06T19:26:50.125Z,94.30
2023-03-06T19:29:17.181Z,94.10
2023-03-06T19:31:44.360Z,94.10
2023-03-06T19:34:11.436Z,94.10
2023-03-06T19:36:40.801Z,94.00
2023-03-06T19:39:08.355Z,93.70
2023-03-06T19:41:35.588Z,93.80
2023-03-06T19:44:05.056Z,94.10
2023-03-06T19:46:32.640Z,93.90
2023-03-06T19:49:01.671Z,93.90
2023-03-06T19:51:28.840Z,93.40
2023-03-06T19:55:01.754Z,93.30
2023-03-06T19:57:28.721Z,92.50
2023-03-06T19:59:58.405Z,92.50
2023-03-06T20:02:27.277Z,92.20
2023-03-06T20:04:55.161Z,92.40
2023-03-06T20:07:22.378Z,92.70
2023-03-06T20:09:50.213Z,92.40
2023-03-06T20:12:17.318Z,92.30
2023-03-06T20:14:46.169Z,92.10
2023-03-06T20:17:13.251Z,91.70
2023-03-06T20:19:40.406Z,91.40
2023-03-06T20:22:07.482Z,91.20
2023-03-06T20:24:34.484Z,91.10
2023-03-06T20:27:01.898Z,91.30
2023-03-06T20:29:28.905Z,91.20
2023-03-06T20:31:57.780Z,90.70
2023-03-06T20:34:26.099Z,91.40
2023-03-06T20:36:53.548Z,91.60
2023-03-06T20:39:24.360Z,92.10
2023-03-06T20:41:51.460Z,92.40
2023-03-06T20:45:09.841Z,92.70
2023-03-06T20:47:36.856Z,92.80
2023-03-06T20:50:04.127Z,93.40
2023-03-06T20:52:31.161Z,93.30
2023-03-06T20:54:58.146Z,93.20
2023-03-06T20:57:25.096Z,93.50
2023-03-06T20:59:52.150Z,93.40
2023-03-06T21:02:19.111Z,93.60
2023-03-06T21:04:46.121Z,93.90
2023-03-06T21:07:13.203Z,93.70
2023-03-06T21:09:40.286Z,93.90
2023-03-06T21:12:07.389Z,93.90
2023-03-06T21:14:34.446Z,94.10
2023-03-06T21:17:01.443Z,94.10
2023-03-06T21:19:28.550Z,93.90
2023-03-06T21:21:55.559Z,93.40
2023-03-06T21:24:22.624Z,94.00
2023-03-06T21:26:51.285Z,93.70
2023-03-06T21:29:18.327Z,93.80
2023-03-06T21:31:45.447Z,93.90
2023-03-06T21:34:12.604Z,94.30
2023-03-06T21:36:39.691Z,93.90
2023-03-06T21:39:06.940Z,93.50
2023-03-06T21:41:34.604Z,93.60
2023-03-06T21:44:06.233Z,93.70
2023-03-06T21:46:34.013Z,93.40
2023-03-06T21:49:03.602Z,93.50
2023-03-06T21:51:30.537Z,93.00
2023-03-06T21:53:57.597Z,93.40
2023-03-06T21:56:26.219Z,93.10
2023-03-06T21:58:53.437Z,92.90
2023-03-06T22:01:24.194Z,93.10
2023-03-06T22:03:51.649Z,92.70
2023-03-06T22:06:21.961Z,92.90
2023-03-06T22:08:49.052Z,93.60
2023-03-06T22:11:18.510Z,94.00
2023-03-06T22:13:48.069Z,93.20
2023-03-06T22:16:16.535Z,93.30
2023-03-06T22:18:48.916Z,93.20
2023-03-06T22:21:18.024Z,93.10
2023-03-06T22:23:52.290Z,93.90
2023-03-06T22:26:20.144Z,93.40
2023-03-06T22:28:47.330Z,92.80
2023-03-06T22:31:19.872Z,93.30
2023-03-06T22:33:47.029Z,93.60
2023-03-06T22:36:15.807Z,93.50
2023-03-06T22:38:45.279Z,93.20
2023-03-06T22:41:13.096Z,93.40
2023-03-06T22:43:40.394Z,93.30
2023-03-06T22:46:10.456Z,93.10
2023-03-06T22:48:37.748Z,93.10
2023-03-06T22:51:14.255Z,92.50
2023-03-06T22:53:41.738Z,92.30
2023-03-06T22:56:13.419Z,92.70
2023-03-06T22:58:40.763Z,92.10
2023-03-06T23:01:18.254Z,91.90
2023-03-06T23:03:47.678Z,91.80
2023-03-06T23:06:14.629Z,92.00
2023-03-06T23:08:42.289Z,92.10
2023-03-06T23:11:12.278Z,92.00
2023-03-06T23:13:58.756Z,92.10
2023-03-06T23:16:44.818Z,92.40
2023-03-06T23:19:30.977Z,92.60
2023-03-06T23:22:16.830Z,92.90
2023-03-06T23:25:02.445Z,93.00
2023-03-06T23:27:29.577Z,93.20
2023-03-06T23:29:59.175Z,92.80
2023-03-06T23:32:26.241Z,92.70
2023-03-06T23:34:53.346Z,92.30
2023-03-06T23:37:20.599Z,92.50
2023-03-06T23:39:47.880Z,93.00
2023-03-06T23:42:15.290Z,92.70
2023-03-06T23:44:42.338Z,92.90
2023-03-06T23:47:09.384Z,92.90
2023-03-06T23:49:36.424Z,93.20
2023-03-06T23:52:04.445Z,92.40
2023-03-06T23:54:33.136Z,92.20
2023-03-06T23:57:00.142Z,92.20
2023-03-06T23:59:27.165Z,92.70
